sensor_id;sensor_type;location;lat;lon;timestamp;pressure;altitude;pressure_sealevel;temperature;humidity
53270;BME280;39159;45.634;9.420;2023-03-03T00:01:17;98960.91;;;5.58;100.00
53270;BME280;39159;45.634;9.420;2023-03-03T00:03:43;98962.25;;;5.61;100.00
53270;BME280;39159;45.634;9.420;2023-03-03T00:06:11;98964.41;;;5.64;100.00
53270;BME280;39159;45.634;9.420;2023-03-03T00:08:37;98963.88;;;5.67;100.00
53270;BME280;39159;45.634;9.420;2023-03-03T00:11:03;98957.34;;;5.68;100.00
53270;BME280;39159;45.634;9.420;2023-03-03T00:13:31;98957.88;;;5.70;100.00
53270;BME280;39159;45.634;9.420;2023-03-03T00:16:31;98958.69;;;5.71;100.00
53270;BME280;39159;45.634;9.420;2023-03-03T00:19:00;98953.03;;;5.67;100.00
53270;BME280;39159;45.634;9.420;2023-03-03T00:21:27;98955.44;;;5.69;100.00
53270;BME280;39159;45.634;9.420;2023-03-03T00:24:18;98959.00;;;5.69;100.00
53270;BME280;39159;45.634;9.420;2023-03-03T00:26:55;98959.00;;;5.69;100.00
53270;BME280;39159;45.634;9.420;2023-03-03T00:29:29;98955.19;;;5.70;100.00
53270;BME280;39159;45.634;9.420;2023-03-03T00:32:07;98960.59;;;5.70;100.00
53270;BME280;39159;45.634;9.420;2023-03-03T00:34:36;98963.03;;;5.72;100.00
53270;BME280;39159;45.634;9.420;2023-03-03T00:37:02;98956.53;;;5.73;100.00
53270;BME280;39159;45.634;9.420;2023-03-03T00:41:59;98951.09;;;5.73;100.00
53270;BME280;39159;45.634;9.420;2023-03-03T00:44:32;98944.91;;;5.67;100.00
53270;BME280;39159;45.634;9.420;2023-03-03T00:49:50;98941.09;;;5.68;100.00
53270;BME280;39159;45.634;9.420;2023-03-03T00:52:17;98948.97;;;5.70;100.00
53270;BME280;39159;45.634;9.420;2023-03-03T00:54:43;98939.50;;;5.67;100.00
53270;BME280;39159;45.634;9.420;2023-03-03T00:57:10;98932.72;;;5.65;100.00
53270;BME280;39159;45.634;9.420;2023-03-03T00:59:37;98935.72;;;5.63;100.00
53270;BME280;39159;45.634;9.420;2023-03-03T01:02:02;98928.97;;;5.60;100.00
53270;BME280;39159;45.634;9.420;2023-03-03T01:04:28;98941.13;;;5.63;100.00
53270;BME280;39159;45.634;9.420;2023-03-03T01:06:53;98932.19;;;5.63;100.00
53270;BME280;39159;45.634;9.420;2023-03-03T01:09:19;98932.19;;;5.63;100.00
53270;BME280;39159;45.634;9.420;2023-03-03T01:11:44;98925.94;;;5.62;100.00
53270;BME280;39159;45.634;9.420;2023-03-03T01:14:10;98926.25;;;5.60;100.00
53270;BME280;39159;45.634;9.420;2023-03-03T01:16:35;98934.09;;;5.57;100.00
53270;BME280;39159;45.634;9.420;2023-03-03T01:19:00;98929.78;;;5.56;100.00
53270;BME280;39159;45.634;9.420;2023-03-03T01:21:26;98929.50;;;5.52;100.00
53270;BME280;39159;45.634;9.420;2023-03-03T01:23:51;98930.59;;;5.51;100.00
53270;BME280;39159;45.634;9.420;2023-03-03T01:26:17;98929.25;;;5.49;100.00
53270;BME280;39159;45.634;9.420;2023-03-03T01:28:42;98920.03;;;5.45;100.00
53270;BME280;39159;45.634;9.420;2023-03-03T01:31:08;98924.94;;;5.43;100.00
53270;BME280;39159;45.634;9.420;2023-03-03T01:33:34;98915.22;;;5.36;100.00
53270;BME280;39159;45.634;9.420;2023-03-03T01:36:01;98913.06;;;5.28;100.00
53270;BME280;39159;45.634;9.420;2023-03-03T01:38:27;98908.47;;;5.24;100.00
53270;BME280;39159;45.634;9.420;2023-03-03T01:40:57;98912.00;;;5.19;100.00
53270;BME280;39159;45.634;9.420;2023-03-03T01:43:27;98904.16;;;5.12;100.00
53270;BME280;39159;45.634;9.420;2023-03-03T01:48:27;98898.22;;;5.05;100.00
53270;BME280;39159;45.634;9.420;2023-03-03T01:51:08;98893.63;;;4.95;100.00
53270;BME280;39159;45.634;9.420;2023-03-03T01:53:49;98891.22;;;4.94;100.00
53270;BME280;39159;45.634;9.420;2023-03-03T01:56:15;98897.97;;;4.91;100.00
53270;BME280;39159;45.634;9.420;2023-03-03T01:58:59;98887.16;;;4.86;100.00
53270;BME280;39159;45.634;9.420;2023-03-03T02:01:27;98888.50;;;4.84;100.00
53270;BME280;39159;45.634;9.420;2023-03-03T02:03:53;98885.53;;;4.85;100.00
53270;BME280;39159;45.634;9.420;2023-03-03T02:06:22;98886.91;;;4.83;100.00
53270;BME280;39159;45.634;9.420;2023-03-03T02:11:20;98880.69;;;4.77;100.00
53270;BME280;39159;45.634;9.420;2023-03-03T02:13:46;98877.19;;;4.71;100.00
53270;BME280;39159;45.634;9.420;2023-03-03T02:16:11;98881.75;;;4.71;100.00
53270;BME280;39159;45.634;9.420;2023-03-03T02:18:37;98876.91;;;4.68;100.00
53270;BME280;39159;45.634;9.420;2023-03-03T02:23:35;98869.06;;;4.66;100.00
53270;BME280;39159;45.634;9.420;2023-03-03T02:28:34;98860.94;;;4.66;100.00
53270;BME280;39159;45.634;9.420;2023-03-03T02:31:00;98855.53;;;4.66;100.00
53270;BME280;39159;45.634;9.420;2023-03-03T02:33:26;98840.94;;;4.62;100.00
53270;BME280;39159;45.634;9.420;2023-03-03T02:35:53;98855.56;;;4.61;100.00
53270;BME280;39159;45.634;9.420;2023-03-03T02:38:31;98846.34;;;4.62;100.00
53270;BME280;39159;45.634;9.420;2023-03-03T02:41:14;98848.78;;;4.64;100.00
53270;BME280;39159;45.634;9.420;2023-03-03T02:43:44;98836.06;;;4.64;100.00
53270;BME280;39159;45.634;9.420;2023-03-03T02:46:10;98835.53;;;4.67;100.00
53270;BME280;39159;45.634;9.420;2023-03-03T02:48:36;98827.16;;;4.69;100.00
53270;BME280;39159;45.634;9.420;2023-03-03T02:51:01;98834.72;;;4.72;100.00
53270;BME280;39159;45.634;9.420;2023-03-03T02:53:27;98824.72;;;4.72;100.00
53270;BME280;39159;45.634;9.420;2023-03-03T02:55:52;98832.81;;;4.77;100.00
53270;BME280;39159;45.634;9.420;2023-03-03T02:58:18;98824.44;;;4.79;100.00
53270;BME280;39159;45.634;9.420;2023-03-03T03:00:43;98824.41;;;4.84;100.00
53270;BME280;39159;45.634;9.420;2023-03-03T03:03:12;98829.28;;;4.82;100.00
53270;BME280;39159;45.634;9.420;2023-03-03T03:05:37;98822.56;;;4.85;100.00
53270;BME280;39159;45.634;9.420;2023-03-03T03:08:03;98822.00;;;4.83;100.00
53270;BME280;39159;45.634;9.420;2023-03-03T03:10:28;98814.72;;;4.83;100.00
53270;BME280;39159;45.634;9.420;2023-03-03T03:12:53;98814.72;;;4.83;100.00
53270;BME280;39159;45.634;9.420;2023-03-03T03:15:19;98808.50;;;4.83;100.00
53270;BME280;39159;45.634;9.420;2023-03-03T03:17:44;98815.78;;;4.82;100.00
53270;BME280;39159;45.634;9.420;2023-03-03T03:20:10;98810.91;;;4.79;100.00
53270;BME280;39159;45.634;9.420;2023-03-03T03:22:36;98804.72;;;4.78;100.00
53270;BME280;39159;45.634;9.420;2023-03-03T03:25:01;98805.78;;;4.77;100.00
53270;BME280;39159;45.634;9.420;2023-03-03T03:27:26;98808.25;;;4.74;100.00
53270;BME280;39159;45.634;9.420;2023-03-03T03:29:52;98800.66;;;4.71;100.00
53270;BME280;39159;45.634;9.420;2023-03-03T03:32:17;98804.97;;;4.67;100.00
53270;BME280;39159;45.634;9.420;2023-03-03T03:34:43;98800.41;;;4.67;100.00
53270;BME280;39159;45.634;9.420;2023-03-03T03:37:08;98809.59;;;4.66;100.00
53270;BME280;39159;45.634;9.420;2023-03-03T03:39:34;98811.22;;;4.62;100.00
53270;BME280;39159;45.634;9.420;2023-03-03T03:42:00;98808.78;;;4.61;100.00
53270;BME280;39159;45.634;9.420;2023-03-03T03:44:25;98805.56;;;4.59;100.00
53270;BME280;39159;45.634;9.420;2023-03-03T03:46:51;98809.88;;;4.60;100.00
53270;BME280;39159;45.634;9.420;2023-03-03T03:49:16;98810.66;;;4.60;100.00
53270;BME280;39159;45.634;9.420;2023-03-03T03:51:42;98803.91;;;4.57;100.00
53270;BME280;39159;45.634;9.420;2023-03-03T03:54:07;98804.22;;;4.56;100.00
53270;BME280;39159;45.634;9.420;2023-03-03T03:56:33;98793.66;;;4.54;100.00
53270;BME280;39159;45.634;9.420;2023-03-03T03:58:58;98799.06;;;4.54;100.00
53270;BME280;39159;45.634;9.420;2023-03-03T04:01:25;98795.00;;;4.57;100.00
53270;BME280;39159;45.634;9.420;2023-03-03T04:03:50;98793.94;;;4.58;100.00
53270;BME280;39159;45.634;9.420;2023-03-03T04:06:16;98784.72;;;4.59;100.00
53270;BME280;39159;45.634;9.420;2023-03-03T04:08:41;98793.94;;;4.58;100.00
53270;BME280;39159;45.634;9.420;2023-03-03T04:11:07;98791.25;;;4.58;100.00
53270;BME280;39159;45.634;9.420;2023-03-03T04:13:32;98779.59;;;4.57;100.00
53270;BME280;39159;45.634;9.420;2023-03-03T04:16:00;98783.38;;;4.56;100.00
53270;BME280;39159;45.634;9.420;2023-03-03T04:18:25;98785.28;;;4.56;100.00
53270;BME280;39159;45.634;9.420;2023-03-03T04:20:51;98779.34;;;4.54;100.00
53270;BME280;39159;45.634;9.420;2023-03-03T04:23:18;98782.84;;;4.54;100.00
53270;BME280;39159;45.634;9.420;2023-03-03T04:25:48;98774.19;;;4.57;100.00
53270;BME280;39159;45.634;9.420;2023-03-03T04:28:17;98785.84;;;4.58;100.00
53270;BME280;39159;45.634;9.420;2023-03-03T04:30:44;98777.97;;;4.56;100.00
53270;BME280;39159;45.634;9.420;2023-03-03T04:33:10;98780.69;;;4.56;100.00
53270;BME280;39159;45.634;9.420;2023-03-03T04:35:35;98766.34;;;4.51;100.00
53270;BME280;39159;45.634;9.420;2023-03-03T04:38:00;98775.00;;;4.53;100.00
53270;BME280;39159;45.634;9.420;2023-03-03T04:40:26;98777.72;;;4.53;100.00
53270;BME280;39159;45.634;9.420;2023-03-03T04:42:52;98778.50;;;4.53;100.00
53270;BME280;39159;45.634;9.420;2023-03-03T04:45:17;98774.19;;;4.52;100.00
53270;BME280;39159;45.634;9.420;2023-03-03T04:47:43;98772.31;;;4.53;100.00
53270;BME280;39159;45.634;9.420;2023-03-03T04:50:10;98779.34;;;4.54;100.00
53270;BME280;39159;45.634;9.420;2023-03-03T04:52:36;98778.25;;;4.55;100.00
53270;BME280;39159;45.634;9.420;2023-03-03T04:55:01;98777.44;;;4.60;100.00
53270;BME280;39159;45.634;9.420;2023-03-03T04:57:27;98782.03;;;4.59;100.00
53270;BME280;39159;45.634;9.420;2023-03-03T04:59:52;98779.34;;;4.49;100.00
53270;BME280;39159;45.634;9.420;2023-03-03T05:02:18;98783.66;;;4.40;100.00
53270;BME280;39159;45.634;9.420;2023-03-03T05:04:44;98786.38;;;4.34;100.00
53270;BME280;39159;45.634;9.420;2023-03-03T05:07:09;98794.22;;;4.21;100.00
53270;BME280;39159;45.634;9.420;2023-03-03T05:09:35;98785.84;;;4.12;100.00
53270;BME280;39159;45.634;9.420;2023-03-03T05:12:00;98784.75;;;4.08;100.00
53270;BME280;39159;45.634;9.420;2023-03-03T05:14:26;98785.81;;;4.07;100.00
53270;BME280;39159;45.634;9.420;2023-03-03T05:16:52;98787.47;;;4.08;100.00
53270;BME280;39159;45.634;9.420;2023-03-03T05:19:18;98781.22;;;4.02;100.00
53270;BME280;39159;45.634;9.420;2023-03-03T05:21:44;98785.56;;;3.98;100.00
53270;BME280;39159;45.634;9.420;2023-03-03T05:24:11;98788.78;;;3.95;100.00
53270;BME280;39159;45.634;9.420;2023-03-03T05:26:38;98789.34;;;3.92;100.00
53270;BME280;39159;45.634;9.420;2023-03-03T05:29:03;98786.34;;;3.88;100.00
53270;BME280;39159;45.634;9.420;2023-03-03T05:31:29;98786.91;;;3.85;100.00
53270;BME280;39159;45.634;9.420;2023-03-03T05:33:54;98783.91;;;3.82;100.00
53270;BME280;39159;45.634;9.420;2023-03-03T05:36:20;98787.41;;;3.77;100.00
53270;BME280;39159;45.634;9.420;2023-03-03T05:38:45;98790.91;;;3.78;100.00
53270;BME280;39159;45.634;9.420;2023-03-03T05:41:11;98790.94;;;3.93;100.00
53270;BME280;39159;45.634;9.420;2023-03-03T05:43:36;98788.00;;;4.35;100.00
53270;BME280;39159;45.634;9.420;2023-03-03T05:46:02;98773.69;;;4.30;100.00
53270;BME280;39159;45.634;9.420;2023-03-03T05:48:27;98786.09;;;4.31;100.00
53270;BME280;39159;45.634;9.420;2023-03-03T05:50:53;98788.81;;;4.26;100.00
53270;BME280;39159;45.634;9.420;2023-03-03T05:53:22;98782.06;;;4.18;100.00
53270;BME280;39159;45.634;9.420;2023-03-03T05:55:47;98793.13;;;4.27;100.00
53270;BME280;39159;45.634;9.420;2023-03-03T05:58:13;98789.09;;;4.29;100.00
53270;BME280;39159;45.634;9.420;2023-03-03T06:00:38;98795.03;;;4.36;100.00
53270;BME280;39159;45.634;9.420;2023-03-03T06:03:04;98790.69;;;4.51;100.00
53270;BME280;39159;45.634;9.420;2023-03-03T06:05:29;98798.53;;;4.42;100.00
53270;BME280;39159;45.634;9.420;2023-03-03T06:07:55;98796.34;;;4.60;100.00
53270;BME280;39159;45.634;9.420;2023-03-03T06:10:20;98796.06;;;4.76;100.00
53270;BME280;39159;45.634;9.420;2023-03-03T06:12:45;98798.19;;;4.90;100.00
53270;BME280;39159;45.634;9.420;2023-03-03T06:15:11;98801.19;;;4.83;100.00
53270;BME280;39159;45.634;9.420;2023-03-03T06:17:37;98804.22;;;4.56;100.00
53270;BME280;39159;45.634;9.420;2023-03-03T06:20:02;98806.38;;;4.44;100.00
53270;BME280;39159;45.634;9.420;2023-03-03T06:22:29;98806.63;;;4.17;100.00
53270;BME280;39159;45.634;9.420;2023-03-03T06:24:54;98804.47;;;4.03;100.00
53270;BME280;39159;45.634;9.420;2023-03-03T06:27:20;98809.03;;;3.92;100.00
53270;BME280;39159;45.634;9.420;2023-03-03T06:29:45;98811.72;;;3.82;100.00
53270;BME280;39159;45.634;9.420;2023-03-03T06:32:10;98814.41;;;3.77;100.00
53270;BME280;39159;45.634;9.420;2023-03-03T06:34:36;98817.09;;;3.72;100.00
53270;BME280;39159;45.634;9.420;2023-03-03T06:37:01;98811.41;;;3.68;100.00
53270;BME280;39159;45.634;9.420;2023-03-03T06:39:27;98817.88;;;3.62;100.00
53270;BME280;39159;45.634;9.420;2023-03-03T06:41:52;98826.22;;;3.56;100.00
53270;BME280;39159;45.634;9.420;2023-03-03T06:44:18;98825.94;;;3.52;100.00
53270;BME280;39159;45.634;9.420;2023-03-03T06:46:43;98826.19;;;3.50;100.00
53270;BME280;39159;45.634;9.420;2023-03-03T06:49:09;98823.06;;;3.74;100.00
53270;BME280;39159;45.634;9.420;2023-03-03T06:51:38;98823.31;;;3.72;100.00
53270;BME280;39159;45.634;9.420;2023-03-03T06:54:30;98821.97;;;3.75;100.00
53270;BME280;39159;45.634;9.420;2023-03-03T06:56:58;98831.69;;;3.76;100.00
53270;BME280;39159;45.634;9.420;2023-03-03T06:59:25;98829.25;;;3.80;100.00
53270;BME280;39159;45.634;9.420;2023-03-03T07:01:51;98825.22;;;3.82;100.00
53270;BME280;39159;45.634;9.420;2023-03-03T07:04:26;98832.25;;;3.83;100.00
53270;BME280;39159;45.634;9.420;2023-03-03T07:07:21;98826.84;;;3.88;100.00
53270;BME280;39159;45.634;9.420;2023-03-03T07:09:49;98834.19;;;3.98;100.00
53270;BME280;39159;45.634;9.420;2023-03-03T07:12:21;98833.63;;;4.06;100.00
53270;BME280;39159;45.634;9.420;2023-03-03T07:15:33;98835.53;;;4.11;100.00
53270;BME280;39159;45.634;9.420;2023-03-03T07:17:41;98830.69;;;4.18;100.00
53270;BME280;39159;45.634;9.420;2023-03-03T07:20:18;98835.53;;;4.26;100.00
53270;BME280;39159;45.634;9.420;2023-03-03T07:22:44;98833.38;;;4.33;100.00
53270;BME280;39159;45.634;9.420;2023-03-03T07:25:39;98837.44;;;4.46;100.00
53270;BME280;39159;45.634;9.420;2023-03-03T07:28:31;98839.59;;;4.65;100.00
53270;BME280;39159;45.634;9.420;2023-03-03T07:30:57;98843.09;;;4.81;100.00
53270;BME280;39159;45.634;9.420;2023-03-03T07:33:26;98840.09;;;5.03;100.00
53270;BME280;39159;45.634;9.420;2023-03-03T07:35:57;98839.22;;;5.17;100.00
53270;BME280;39159;45.634;9.420;2023-03-03T07:41:29;98844.97;;;5.71;100.00
53270;BME280;39159;45.634;9.420;2023-03-03T07:44:06;98846.47;;;5.97;100.00
53270;BME280;39159;45.634;9.420;2023-03-03T07:46:44;98848.22;;;6.22;100.00
53270;BME280;39159;45.634;9.420;2023-03-03T07:51:52;98846.25;;;6.68;100.00
53270;BME280;39159;45.634;9.420;2023-03-03T07:54:34;98849.72;;;6.73;100.00
53270;BME280;39159;45.634;9.420;2023-03-03T07:59:36;98855.06;;;6.83;100.00
53270;BME280;39159;45.634;9.420;2023-03-03T08:02:02;98848.38;;;7.00;100.00
53270;BME280;39159;45.634;9.420;2023-03-03T08:04:38;98854.09;;;7.22;100.00
53270;BME280;39159;45.634;9.420;2023-03-03T08:07:11;98856.66;;;7.38;100.00
53270;BME280;39159;45.634;9.420;2023-03-03T08:09:40;98852.00;;;7.62;100.00
53270;BME280;39159;45.634;9.420;2023-03-03T08:14:36;98855.81;;;7.85;100.00
53270;BME280;39159;45.634;9.420;2023-03-03T08:17:16;98852.50;;;7.88;100.00
53270;BME280;39159;45.634;9.420;2023-03-03T08:19:44;98854.06;;;7.95;100.00
53270;BME280;39159;45.634;9.420;2023-03-03T08:22:16;98852.38;;;7.99;100.00
53270;BME280;39159;45.634;9.420;2023-03-03T08:24:42;98856.19;;;8.17;100.00
53270;BME280;39159;45.634;9.420;2023-03-03T08:27:07;98843.91;;;8.38;100.00
53270;BME280;39159;45.634;9.420;2023-03-03T08:29:33;98852.78;;;8.63;100.00
53270;BME280;39159;45.634;9.420;2023-03-03T08:31:58;98857.41;;;8.95;100.00
53270;BME280;39159;45.634;9.420;2023-03-03T08:34:24;98851.28;;;9.17;100.00
53270;BME280;39159;45.634;9.420;2023-03-03T08:36:49;98844.13;;;9.35;100.00
53270;BME280;39159;45.634;9.420;2023-03-03T08:39:15;98849.38;;;9.59;100.00
53270;BME280;39159;45.634;9.420;2023-03-03T08:41:40;98851.31;;;9.59;100.00
53270;BME280;39159;45.634;9.420;2023-03-03T08:44:08;98853.81;;;9.55;100.00
53270;BME280;39159;45.634;9.420;2023-03-03T08:46:33;98847.38;;;9.37;100.00
53270;BME280;39159;45.634;9.420;2023-03-03T08:48:59;98849.78;;;9.25;100.00
53270;BME280;39159;45.634;9.420;2023-03-03T08:51:24;98857.53;;;9.04;100.00
53270;BME280;39159;45.634;9.420;2023-03-03T08:53:50;98857.97;;;9.39;100.00
53270;BME280;39159;45.634;9.420;2023-03-03T08:56:16;98859.06;;;9.38;100.00
53270;BME280;39159;45.634;9.420;2023-03-03T08:58:41;98864.31;;;9.48;100.00
53270;BME280;39159;45.634;9.420;2023-03-03T09:01:15;98857.09;;;9.93;100.00
53270;BME280;39159;45.634;9.420;2023-03-03T09:03:41;98864.03;;;10.13;98.49
53270;BME280;39159;45.634;9.420;2023-03-03T09:06:07;98858.47;;;10.19;96.24
53270;BME280;39159;45.634;9.420;2023-03-03T09:08:33;98856.47;;;10.47;94.49
53270;BME280;39159;45.634;9.420;2023-03-03T09:10:58;98859.25;;;10.78;92.44
53270;BME280;39159;45.634;9.420;2023-03-03T09:13:26;98857.63;;;10.99;90.04
53270;BME280;39159;45.634;9.420;2023-03-03T09:15:53;98864.53;;;10.97;87.15
53270;BME280;39159;45.634;9.420;2023-03-03T09:18:34;98860.47;;;11.17;87.26
53270;BME280;39159;45.634;9.420;2023-03-03T09:21:00;98866.09;;;11.69;85.19
53270;BME280;39159;45.634;9.420;2023-03-03T09:26:18;98866.69;;;11.97;80.95
53270;BME280;39159;45.634;9.420;2023-03-03T09:28:46;98866.38;;;11.99;78.11
53270;BME280;39159;45.634;9.420;2023-03-03T09:31:26;98870.50;;;11.79;79.06
53270;BME280;39159;45.634;9.420;2023-03-03T09:33:54;98868.66;;;12.23;79.17
53270;BME280;39159;45.634;9.420;2023-03-03T09:36:28;98870.28;;;12.50;77.25
53270;BME280;39159;45.634;9.420;2023-03-03T09:38:58;98868.69;;;12.32;73.92
53270;BME280;39159;45.634;9.420;2023-03-03T09:44:57;98867.38;;;12.73;75.29
53270;BME280;39159;45.634;9.420;2023-03-03T09:52:53;98865.63;;;13.24;72.37
53270;BME280;39159;45.634;9.420;2023-03-03T10:25:57;98867.31;;;14.56;60.08
53270;BME280;39159;45.634;9.420;2023-03-03T10:39:42;98875.13;;;14.24;61.56
53270;BME280;39159;45.634;9.420;2023-03-03T10:50:50;98871.88;;;14.52;60.37
53270;BME280;39159;45.634;9.420;2023-03-03T11:06:52;98866.31;;;15.27;57.16
53270;BME280;39159;45.634;9.420;2023-03-03T11:14:46;98861.47;;;15.24;58.07
53270;BME280;39159;45.634;9.420;2023-03-03T11:25:49;98856.03;;;15.73;55.34
53270;BME280;39159;45.634;9.420;2023-03-03T11:28:20;98855.78;;;15.54;52.98
53270;BME280;39159;45.634;9.420;2023-03-03T11:36:22;98849.56;;;15.69;52.16
53270;BME280;39159;45.634;9.420;2023-03-03T11:39:01;98844.34;;;15.77;52.12
53270;BME280;39159;45.634;9.420;2023-03-03T11:44:26;98840.28;;;15.49;52.77
53270;BME280;39159;45.634;9.420;2023-03-03T11:47:03;98844.66;;;15.63;54.74
53270;BME280;39159;45.634;9.420;2023-03-03T11:49:50;98841.00;;;15.71;55.20
53270;BME280;39159;45.634;9.420;2023-03-03T11:57:53;98841.09;;;15.62;54.49
53270;BME280;39159;45.634;9.420;2023-03-03T12:03:23;98830.63;;;14.94;55.30
53270;BME280;39159;45.634;9.420;2023-03-03T12:05:55;98825.16;;;15.31;55.36
53270;BME280;39159;45.634;9.420;2023-03-03T12:16:30;98820.81;;;15.42;56.52
53270;BME280;39159;45.634;9.420;2023-03-03T12:19:34;98816.91;;;15.55;55.49
53270;BME280;39159;45.634;9.420;2023-03-03T12:22:19;98814.50;;;15.66;53.10
53270;BME280;39159;45.634;9.420;2023-03-03T12:32:53;98818.03;;;16.04;50.35
53270;BME280;39159;45.634;9.420;2023-03-03T12:38:39;98805.59;;;15.82;51.93
53270;BME280;39159;45.634;9.420;2023-03-03T12:44:23;98797.88;;;15.13;53.54
53270;BME280;39159;45.634;9.420;2023-03-03T12:47:21;98799.69;;;15.09;54.14
53270;BME280;39159;45.634;9.420;2023-03-03T12:58:36;98798.34;;;15.16;53.55
53270;BME280;39159;45.634;9.420;2023-03-03T13:17:16;98790.81;;;15.74;52.49
53270;BME280;39159;45.634;9.420;2023-03-03T13:19:55;98791.25;;;15.88;50.35
53270;BME280;39159;45.634;9.420;2023-03-03T13:25:08;98795.16;;;15.50;51.29
53270;BME280;39159;45.634;9.420;2023-03-03T13:27:42;98795.38;;;15.82;51.03
53270;BME280;39159;45.634;9.420;2023-03-03T13:30:19;98792.69;;;16.10;50.38
53270;BME280;39159;45.634;9.420;2023-03-03T13:38:24;98785.59;;;15.97;49.60
53270;BME280;39159;45.634;9.420;2023-03-03T13:52:06;98765.59;;;15.47;51.44
53270;BME280;39159;45.634;9.420;2023-03-03T14:05:50;98782.63;;;14.91;51.29
53270;BME280;39159;45.634;9.420;2023-03-03T14:11:34;98787.19;;;14.21;54.76
53270;BME280;39159;45.634;9.420;2023-03-03T14:19:43;98779.63;;;14.72;53.10
53270;BME280;39159;45.634;9.420;2023-03-03T14:22:33;98781.44;;;14.80;52.33
53270;BME280;39159;45.634;9.420;2023-03-03T14:25:10;98775.84;;;14.77;52.49
53270;BME280;39159;45.634;9.420;2023-03-03T14:27:39;98776.41;;;14.82;51.94
53270;BME280;39159;45.634;9.420;2023-03-03T14:38:15;98766.50;;;15.27;52.12
53270;BME280;39159;45.634;9.420;2023-03-03T14:40:43;98767.78;;;15.54;51.17
53270;BME280;39159;45.634;9.420;2023-03-03T14:43:38;98774.75;;;15.15;52.24
53270;BME280;39159;45.634;9.420;2023-03-03T14:49:03;98767.25;;;14.66;53.76
53270;BME280;39159;45.634;9.420;2023-03-03T14:51:45;98761.59;;;14.62;53.63
53270;BME280;39159;45.634;9.420;2023-03-03T14:54:38;98764.13;;;14.55;54.62
53270;BME280;39159;45.634;9.420;2023-03-03T14:57:21;98766.22;;;14.49;54.96
53270;BME280;39159;45.634;9.420;2023-03-03T15:03:15;98764.03;;;14.09;55.65
53270;BME280;39159;45.634;9.420;2023-03-03T15:05:59;98762.00;;;13.98;55.77
53270;BME280;39159;45.634;9.420;2023-03-03T15:08:33;98763.56;;;14.07;55.71
53270;BME280;39159;45.634;9.420;2023-03-03T15:11:32;98766.25;;;14.16;55.09
53270;BME280;39159;45.634;9.420;2023-03-03T15:14:17;98762.09;;;14.10;56.36
53270;BME280;39159;45.634;9.420;2023-03-03T15:16:44;98763.69;;;14.11;55.79
53270;BME280;39159;45.634;9.420;2023-03-03T15:19:36;98758.94;;;13.99;55.28
53270;BME280;39159;45.634;9.420;2023-03-03T15:25:17;98760.22;;;13.81;56.07
53270;BME280;39159;45.634;9.420;2023-03-03T15:28:35;98771.78;;;13.65;56.17
53270;BME280;39159;45.634;9.420;2023-03-03T15:41:43;98758.91;;;13.36;56.78
53270;BME280;39159;45.634;9.420;2023-03-03T15:44:35;98759.03;;;13.40;56.81
53270;BME280;39159;45.634;9.420;2023-03-03T15:55:57;98762.16;;;13.21;60.45
53270;BME280;39159;45.634;9.420;2023-03-03T15:59:05;98761.72;;;13.10;60.32
53270;BME280;39159;45.634;9.420;2023-03-03T16:02:08;98756.88;;;13.07;60.29
53270;BME280;39159;45.634;9.420;2023-03-03T16:04:40;98755.34;;;12.97;61.67
53270;BME280;39159;45.634;9.420;2023-03-03T16:08:24;98765.81;;;12.95;61.17
53270;BME280;39159;45.634;9.420;2023-03-03T16:10:33;98768.75;;;12.90;60.50
53270;BME280;39159;45.634;9.420;2023-03-03T16:14:06;98771.50;;;12.81;61.02
53270;BME280;39159;45.634;9.420;2023-03-03T16:16:28;98776.03;;;12.77;62.47
53270;BME280;39159;45.634;9.420;2023-03-03T16:24:31;98776.03;;;12.77;61.36
53270;BME280;39159;45.634;9.420;2023-03-03T16:30:02;98781.38;;;12.65;61.32
53270;BME280;39159;45.634;9.420;2023-03-03T16:32:43;98782.81;;;12.54;60.96
53270;BME280;39159;45.634;9.420;2023-03-03T16:38:02;98781.44;;;12.39;62.05
53270;BME280;39159;45.634;9.420;2023-03-03T16:40:32;98792.19;;;12.35;62.62
53270;BME280;39159;45.634;9.420;2023-03-03T16:43:20;98803.63;;;12.37;62.64
53270;BME280;39159;45.634;9.420;2023-03-03T16:45:47;98795.25;;;12.34;62.11
53270;BME280;39159;45.634;9.420;2023-03-03T16:48:21;98802.53;;;12.30;61.88
53270;BME280;39159;45.634;9.420;2023-03-03T16:51:13;98812.00;;;12.23;61.44
53270;BME280;39159;45.634;9.420;2023-03-03T16:53:48;98806.22;;;12.16;62.95
53270;BME280;39159;45.634;9.420;2023-03-03T16:56:32;98814.91;;;12.10;63.47
53270;BME280;39159;45.634;9.420;2023-03-03T17:02:07;98823.91;;;12.01;65.06
53270;BME280;39159;45.634;9.420;2023-03-03T17:08:19;98814.19;;;11.87;65.51
53270;BME280;39159;45.634;9.420;2023-03-03T17:13:50;98817.56;;;11.75;66.88
53270;BME280;39159;45.634;9.420;2023-03-03T17:22:09;98826.03;;;11.56;69.62
53270;BME280;39159;45.634;9.420;2023-03-03T17:25:21;98833.41;;;11.47;69.81
53270;BME280;39159;45.634;9.420;2023-03-03T17:28:03;98838.22;;;11.41;70.70
53270;BME280;39159;45.634;9.420;2023-03-03T17:33:42;98848.28;;;11.23;72.67
53270;BME280;39159;45.634;9.420;2023-03-03T17:36:18;98841.34;;;11.17;73.57
53270;BME280;39159;45.634;9.420;2023-03-03T17:39:07;98846.94;;;11.12;73.80
53270;BME280;39159;45.634;9.420;2023-03-03T17:54:07;98859.94;;;10.84;76.59
53270;BME280;39159;45.634;9.420;2023-03-03T18:18:02;98881.97;;;10.28;81.64
53270;BME280;39159;45.634;9.420;2023-03-03T18:20:42;98893.59;;;10.20;82.13
53270;BME280;39159;45.634;9.420;2023-03-03T18:25:54;98898.78;;;10.08;83.42
53270;BME280;39159;45.634;9.420;2023-03-03T18:28:23;98898.91;;;10.03;83.87
53270;BME280;39159;45.634;9.420;2023-03-03T18:31:00;98899.00;;;9.98;84.02
53270;BME280;39159;45.634;9.420;2023-03-03T18:33:57;98898.00;;;9.93;84.03
53270;BME280;39159;45.634;9.420;2023-03-03T18:39:00;98912.16;;;9.82;84.46
53270;BME280;39159;45.634;9.420;2023-03-03T18:41:29;98909.94;;;9.70;84.77
53270;BME280;39159;45.634;9.420;2023-03-03T18:43:56;98914.38;;;9.66;86.13
53270;BME280;39159;45.634;9.420;2023-03-03T18:57:12;98928.34;;;9.31;88.63